sensor_id;sensor_type;location;lat;lon;timestamp;pressure;altitude;pressure_sealevel;temperature;humidity
76519;BME280;67029;51.054;13.798;2023-05-07T00:00:20;100709.37;;;15.92;53.98
76519;BME280;67029;51.054;13.798;2023-05-07T00:02:50;100711.41;;;15.90;54.21
76519;BME280;67029;51.054;13.798;2023-05-07T00:05:20;100705.44;;;15.90;54.29
76519;BME280;67029;51.054;13.798;2023-05-07T00:07:50;100704.24;;;15.90;54.31
76519;BME280;67029;51.054;13.798;2023-05-07T00:10:20;100708.73;;;15.88;54.47
76519;BME280;67029;51.054;13.798;2023-05-07T00:12:50;100719.32;;;15.84;54.34
76519;BME280;67029;51.054;13.798;2023-05-07T00:15:21;100717.97;;;15.83;54.34
76519;BME280;67029;51.054;13.798;2023-05-07T00:17:51;100716.05;;;15.82;54.58
76519;BME280;67029;51.054;13.798;2023-05-07T00:20:21;100712.63;;;15.79;54.34
76519;BME280;67029;51.054;13.798;2023-05-07T00:22:51;100717.62;;;15.78;54.54
76519;BME280;67029;51.054;13.798;2023-05-07T00:25:21;100717.81;;;15.77;54.55
76519;BME280;67029;51.054;13.798;2023-05-07T00:27:51;100718.89;;;15.75;54.65
76519;BME280;67029;51.054;13.798;2023-05-07T00:30:21;100718.01;;;15.74;54.46
76519;BME280;67029;51.054;13.798;2023-05-07T00:32:51;100721.10;;;15.72;54.63
76519;BME280;67029;51.054;13.798;2023-05-07T00:35:21;100721.73;;;15.74;54.91
76519;BME280;67029;51.054;13.798;2023-05-07T00:37:51;100719.25;;;15.74;54.70
76519;BME280;67029;51.054;13.798;2023-05-07T00:40:21;100719.83;;;15.73;54.69
76519;BME280;67029;51.054;13.798;2023-05-07T00:42:51;100720.64;;;15.74;54.71
76519;BME280;67029;51.054;13.798;2023-05-07T00:45:23;100719.75;;;15.72;54.81
76519;BME280;67029;51.054;13.798;2023-05-07T00:47:57;100724.70;;;15.71;54.92
76519;BME280;67029;51.054;13.798;2023-05-07T00:50:24;100725.98;;;15.70;54.84
76519;BME280;67029;51.054;13.798;2023-05-07T00:52:58;100722.98;;;15.69;54.80
76519;BME280;67029;51.054;13.798;2023-05-07T00:55:25;100716.48;;;15.66;54.71
76519;BME280;67029;51.054;13.798;2023-05-07T00:57:56;100713.85;;;15.66;55.05
76519;BME280;67029;51.054;13.798;2023-05-07T01:00:26;100712.78;;;15.65;54.93
76519;BME280;67029;51.054;13.798;2023-05-07T01:02:58;100712.48;;;15.62;54.73
76519;BME280;67029;51.054;13.798;2023-05-07T01:05:27;100713.77;;;15.62;54.80
76519;BME280;67029;51.054;13.798;2023-05-07T01:07:57;100713.97;;;15.62;54.79
76519;BME280;67029;51.054;13.798;2023-05-07T01:10:28;100713.82;;;15.61;54.93
76519;BME280;67029;51.054;13.798;2023-05-07T01:13:01;100718.66;;;15.58;54.61
76519;BME280;67029;51.054;13.798;2023-05-07T01:15:28;100718.34;;;15.55;54.67
76519;BME280;67029;51.054;13.798;2023-05-07T01:17:58;100716.39;;;15.54;54.78
76519;BME280;67029;51.054;13.798;2023-05-07T01:20:29;100713.31;;;15.55;54.90
76519;BME280;67029;51.054;13.798;2023-05-07T01:23:00;100712.44;;;15.53;54.71
76519;BME280;67029;51.054;13.798;2023-05-07T01:25:32;100722.33;;;15.52;54.83
76519;BME280;67029;51.054;13.798;2023-05-07T01:28:00;100718.89;;;15.50;54.75
76519;BME280;67029;51.054;13.798;2023-05-07T01:30:32;100726.52;;;15.49;54.76
76519;BME280;67029;51.054;13.798;2023-05-07T01:33:07;100723.05;;;15.44;54.54
76519;BME280;67029;51.054;13.798;2023-05-07T01:35:36;100723.47;;;15.42;54.64
76519;BME280;67029;51.054;13.798;2023-05-07T01:38:02;100725.20;;;15.43;54.70
76519;BME280;67029;51.054;13.798;2023-05-07T01:40:33;100722.56;;;15.44;54.69
76519;BME280;67029;51.054;13.798;2023-05-07T01:43:05;100728.06;;;15.41;54.46
76519;BME280;67029;51.054;13.798;2023-05-07T01:45:34;100730.73;;;15.41;54.62
76519;BME280;67029;51.054;13.798;2023-05-07T01:48:06;100735.89;;;15.41;54.52
76519;BME280;67029;51.054;13.798;2023-05-07T01:50:35;100733.38;;;15.37;54.53
76519;BME280;67029;51.054;13.798;2023-05-07T01:53:06;100732.84;;;15.38;54.64
76519;BME280;67029;51.054;13.798;2023-05-07T01:55:36;100733.80;;;15.38;54.63
76519;BME280;67029;51.054;13.798;2023-05-07T01:58:06;100737.62;;;15.41;54.56
76519;BME280;67029;51.054;13.798;2023-05-07T02:00:39;100732.48;;;15.39;54.52
76519;BME280;67029;51.054;13.798;2023-05-07T02:03:06;100733.83;;;15.36;54.53
76519;BME280;67029;51.054;13.798;2023-05-07T02:05:36;100731.29;;;15.35;54.40
76519;BME280;67029;51.054;13.798;2023-05-07T02:08:06;100729.03;;;15.33;54.47
76519;BME280;67029;51.054;13.798;2023-05-07T02:10:36;100728.52;;;15.34;54.49
76519;BME280;67029;51.054;13.798;2023-05-07T02:13:06;100729.21;;;15.37;54.48
76519;BME280;67029;51.054;13.798;2023-05-07T02:15:36;100730.92;;;15.37;54.48
76519;BME280;67029;51.054;13.798;2023-05-07T02:18:08;100734.31;;;15.38;54.43
76519;BME280;67029;51.054;13.798;2023-05-07T02:20:37;100738.30;;;15.38;54.46
76519;BME280;67029;51.054;13.798;2023-05-07T02:23:07;100739.45;;;15.39;54.50
76519;BME280;67029;51.054;13.798;2023-05-07T02:25:37;100741.30;;;15.37;54.37
76519;BME280;67029;51.054;13.798;2023-05-07T02:28:07;100742.19;;;15.35;54.45
76519;BME280;67029;51.054;13.798;2023-05-07T02:30:37;100748.62;;;15.37;54.45
76519;BME280;67029;51.054;13.798;2023-05-07T02:33:07;100749.89;;;15.34;54.35
76519;BME280;67029;51.054;13.798;2023-05-07T02:35:37;100749.78;;;15.32;54.53
76519;BME280;67029;51.054;13.798;2023-05-07T02:38:07;100751.80;;;15.30;54.44
76519;BME280;67029;51.054;13.798;2023-05-07T02:40:37;100745.52;;;15.29;54.50
76519;BME280;67029;51.054;13.798;2023-05-07T02:43:07;100752.75;;;15.30;54.44
76519;BME280;67029;51.054;13.798;2023-05-07T02:45:37;100753.27;;;15.31;54.58
76519;BME280;67029;51.054;13.798;2023-05-07T02:48:07;100750.38;;;15.31;54.44
76519;BME280;67029;51.054;13.798;2023-05-07T02:50:37;100748.49;;;15.30;54.48
76519;BME280;67029;51.054;13.798;2023-05-07T02:53:07;100745.80;;;15.28;54.43
76519;BME280;67029;51.054;13.798;2023-05-07T02:55:37;100750.56;;;15.28;54.47
76519;BME280;67029;51.054;13.798;2023-05-07T02:58:07;100752.80;;;15.30;54.73
76519;BME280;67029;51.054;13.798;2023-05-07T03:00:37;100751.38;;;15.29;54.78
76519;BME280;67029;51.054;13.798;2023-05-07T03:03:07;100754.05;;;15.25;54.80
76519;BME280;67029;51.054;13.798;2023-05-07T03:05:37;100752.97;;;15.20;54.63
76519;BME280;67029;51.054;13.798;2023-05-07T03:08:10;100751.61;;;15.20;54.81
76519;BME280;67029;51.054;13.798;2023-05-07T03:10:41;100751.08;;;15.15;54.85
76519;BME280;67029;51.054;13.798;2023-05-07T03:13:09;100748.75;;;15.12;54.98
76519;BME280;67029;51.054;13.798;2023-05-07T03:15:39;100743.67;;;15.11;55.00
76519;BME280;67029;51.054;13.798;2023-05-07T03:18:09;100746.84;;;15.11;55.24
76519;BME280;67029;51.054;13.798;2023-05-07T03:20:39;100747.86;;;15.08;55.16
76519;BME280;67029;51.054;13.798;2023-05-07T03:23:11;100748.10;;;15.05;55.30
76519;BME280;67029;51.054;13.798;2023-05-07T03:25:39;100753.13;;;15.05;55.59
76519;BME280;67029;51.054;13.798;2023-05-07T03:28:09;100752.05;;;15.01;55.32
76519;BME280;67029;51.054;13.798;2023-05-07T03:30:39;100753.83;;;15.00;55.44
76519;BME280;67029;51.054;13.798;2023-05-07T03:33:09;100758.13;;;14.98;55.43
76519;BME280;67029;51.054;13.798;2023-05-07T03:35:39;100759.41;;;14.99;55.47
76519;BME280;67029;51.054;13.798;2023-05-07T03:38:09;100759.07;;;14.99;55.58
76519;BME280;67029;51.054;13.798;2023-05-07T03:40:39;100759.17;;;14.97;55.55
76519;BME280;67029;51.054;13.798;2023-05-07T03:43:09;100762.62;;;14.96;55.80
76519;BME280;67029;51.054;13.798;2023-05-07T03:45:39;100765.09;;;14.92;55.74
76519;BME280;67029;51.054;13.798;2023-05-07T03:48:09;100764.36;;;14.91;55.84
76519;BME280;67029;51.054;13.798;2023-05-07T03:50:39;100764.08;;;14.92;56.07
76519;BME280;67029;51.054;13.798;2023-05-07T03:53:09;100761.19;;;14.88;55.84
76519;BME280;67029;51.054;13.798;2023-05-07T03:55:39;100764.98;;;14.86;56.00
76519;BME280;67029;51.054;13.798;2023-05-07T03:58:09;100765.02;;;14.85;56.03
76519;BME280;67029;51.054;13.798;2023-05-07T04:00:39;100768.97;;;14.84;56.06
76519;BME280;67029;51.054;13.798;2023-05-07T04:03:09;100771.30;;;14.82;56.01
76519;BME280;67029;51.054;13.798;2023-05-07T04:05:39;100770.94;;;14.82;56.17
76519;BME280;67029;51.054;13.798;2023-05-07T04:08:09;100772.12;;;14.83;56.25
76519;BME280;67029;51.054;13.798;2023-05-07T04:10:39;100770.45;;;14.82;56.18
76519;BME280;67029;51.054;13.798;2023-05-07T04:13:09;100770.48;;;14.80;56.31
76519;BME280;67029;51.054;13.798;2023-05-07T04:15:39;100772.69;;;14.80;56.39
76519;BME280;67029;51.054;13.798;2023-05-07T04:18:09;100769.15;;;14.79;56.37
76519;BME280;67029;51.054;13.798;2023-05-07T04:20:39;100765.38;;;14.77;56.37
76519;BME280;67029;51.054;13.798;2023-05-07T04:23:09;100769.82;;;14.76;56.40
76519;BME280;67029;51.054;13.798;2023-05-07T04:25:39;100777.70;;;14.77;56.26
76519;BME280;67029;51.054;13.798;2023-05-07T04:28:09;100782.05;;;14.78;56.25
76519;BME280;67029;51.054;13.798;2023-05-07T04:30:39;100782.00;;;14.80;56.37
76519;BME280;67029;51.054;13.798;2023-05-07T04:33:10;100788.16;;;14.81;56.21
76519;BME280;67029;51.054;13.798;2023-05-07T04:35:39;100791.45;;;14.82;56.32
76519;BME280;67029;51.054;13.798;2023-05-07T04:38:09;100796.34;;;14.80;56.19
76519;BME280;67029;51.054;13.798;2023-05-07T04:40:39;100801.38;;;14.79;56.25
76519;BME280;67029;51.054;13.798;2023-05-07T04:43:09;100803.91;;;14.77;56.31
76519;BME280;67029;51.054;13.798;2023-05-07T04:45:39;100806.16;;;14.67;56.14
76519;BME280;67029;51.054;13.798;2023-05-07T04:48:09;100809.05;;;14.67;56.30
76519;BME280;67029;51.054;13.798;2023-05-07T04:50:39;100810.05;;;14.69;56.29
76519;BME280;67029;51.054;13.798;2023-05-07T04:53:10;100814.41;;;14.68;56.13
76519;BME280;67029;51.054;13.798;2023-05-07T04:55:40;100815.11;;;14.71;56.18
76519;BME280;67029;51.054;13.798;2023-05-07T04:58:10;100818.04;;;14.73;56.01
76519;BME280;67029;51.054;13.798;2023-05-07T05:00:40;100818.20;;;14.77;56.00
76519;BME280;67029;51.054;13.798;2023-05-07T05:03:10;100824.33;;;14.83;56.13
76519;BME280;67029;51.054;13.798;2023-05-07T05:05:40;100823.25;;;14.84;56.03
76519;BME280;67029;51.054;13.798;2023-05-07T05:08:10;100826.46;;;14.84;55.99
76519;BME280;67029;51.054;13.798;2023-05-07T05:10:40;100826.44;;;14.86;56.00
76519;BME280;67029;51.054;13.798;2023-05-07T05:13:10;100824.25;;;14.87;56.14
76519;BME280;67029;51.054;13.798;2023-05-07T05:15:40;100822.48;;;14.83;56.06
76519;BME280;67029;51.054;13.798;2023-05-07T05:18:10;100824.34;;;14.84;56.11
76519;BME280;67029;51.054;13.798;2023-05-07T05:20:40;100826.54;;;14.84;56.09
76519;BME280;67029;51.054;13.798;2023-05-07T05:23:10;100825.20;;;14.87;56.11
76519;BME280;67029;51.054;13.798;2023-05-07T05:25:40;100824.55;;;14.86;55.90
76519;BME280;67029;51.054;13.798;2023-05-07T05:28:10;100826.19;;;14.88;55.93
76519;BME280;67029;51.054;13.798;2023-05-07T05:30:40;100829.34;;;14.91;55.93
76519;BME280;67029;51.054;13.798;2023-05-07T05:33:10;100832.89;;;14.93;55.81
76519;BME280;67029;51.054;13.798;2023-05-07T05:35:41;100838.33;;;14.97;55.78
76519;BME280;67029;51.054;13.798;2023-05-07T05:38:11;100839.87;;;15.01;55.71
76519;BME280;67029;51.054;13.798;2023-05-07T05:40:41;100846.44;;;15.03;55.61
76519;BME280;67029;51.054;13.798;2023-05-07T05:43:11;100850.91;;;15.08;55.57
76519;BME280;67029;51.054;13.798;2023-05-07T05:45:41;100853.25;;;15.13;55.46
76519;BME280;67029;51.054;13.798;2023-05-07T05:48:11;100853.34;;;15.13;55.47
76519;BME280;67029;51.054;13.798;2023-05-07T05:50:42;100853.31;;;15.11;55.50
76519;BME280;67029;51.054;13.798;2023-05-07T05:53:12;100853.40;;;15.10;55.57
76519;BME280;67029;51.054;13.798;2023-05-07T05:55:42;100858.27;;;15.10;55.45
76519;BME280;67029;51.054;13.798;2023-05-07T05:58:12;100862.17;;;15.03;55.29
76519;BME280;67029;51.054;13.798;2023-05-07T06:00:42;100867.75;;;14.98;55.38
76519;BME280;67029;51.054;13.798;2023-05-07T06:03:12;100867.20;;;14.99;55.23
76519;BME280;67029;51.054;13.798;2023-05-07T06:05:42;100866.59;;;15.00;55.06
76519;BME280;67029;51.054;13.798;2023-05-07T06:08:12;100870.41;;;15.01;55.01
76519;BME280;67029;51.054;13.798;2023-05-07T06:10:42;100873.09;;;15.02;54.86
76519;BME280;67029;51.054;13.798;2023-05-07T06:13:12;100877.38;;;15.04;54.89
76519;BME280;67029;51.054;13.798;2023-05-07T06:15:42;100881.36;;;15.02;54.73
76519;BME280;67029;51.054;13.798;2023-05-07T06:18:12;100887.27;;;14.96;54.59
76519;BME280;67029;51.054;13.798;2023-05-07T06:20:42;100885.50;;;14.91;54.62
76519;BME280;67029;51.054;13.798;2023-05-07T06:23:13;100883.45;;;14.92;54.46
76519;BME280;67029;51.054;13.798;2023-05-07T06:25:45;100885.73;;;14.89;54.42
76519;BME280;67029;51.054;13.798;2023-05-07T06:28:13;100886.06;;;14.86;54.31
76519;BME280;67029;51.054;13.798;2023-05-07T06:30:43;100887.97;;;14.83;54.24
76519;BME280;67029;51.054;13.798;2023-05-07T06:33:13;100888.37;;;14.82;54.47
76519;BME280;67029;51.054;13.798;2023-05-07T06:35:43;100884.80;;;14.86;54.38
76519;BME280;67029;51.054;13.798;2023-05-07T06:38:13;100879.55;;;14.88;54.27
76519;BME280;67029;51.054;13.798;2023-05-07T06:40:43;100883.94;;;14.93;54.07
76519;BME280;67029;51.054;13.798;2023-05-07T06:43:13;100883.81;;;14.91;54.06
76519;BME280;67029;51.054;13.798;2023-05-07T06:45:43;100891.31;;;14.90;54.41
76519;BME280;67029;51.054;13.798;2023-05-07T06:48:13;100895.22;;;14.91;54.53
76519;BME280;67029;51.054;13.798;2023-05-07T06:50:43;100902.69;;;14.95;54.46
76519;BME280;67029;51.054;13.798;2023-05-07T06:53:14;100906.69;;;14.95;54.37
76519;BME280;67029;51.054;13.798;2023-05-07T06:55:43;100905.69;;;14.98;54.26
76519;BME280;67029;51.054;13.798;2023-05-07T06:58:14;100906.27;;;14.95;54.14
76519;BME280;67029;51.054;13.798;2023-05-07T07:00:44;100899.42;;;14.90;54.20
76519;BME280;67029;51.054;13.798;2023-05-07T07:03:14;100902.22;;;14.94;54.30
76519;BME280;67029;51.054;13.798;2023-05-07T07:05:44;100908.20;;;14.96;54.38
76519;BME280;67029;51.054;13.798;2023-05-07T07:08:14;100915.56;;;14.99;54.37
76519;BME280;67029;51.054;13.798;2023-05-07T07:10:44;100910.00;;;15.03;54.55
76519;BME280;67029;51.054;13.798;2023-05-07T07:13:14;100907.69;;;15.05;54.63
76519;BME280;67029;51.054;13.798;2023-05-07T07:15:44;100903.83;;;14.94;54.62
76519;BME280;67029;51.054;13.798;2023-05-07T07:18:14;100909.03;;;14.90;54.58
76519;BME280;67029;51.054;13.798;2023-05-07T07:20:44;100913.59;;;14.87;54.64
76519;BME280;67029;51.054;13.798;2023-05-07T07:23:14;100914.16;;;14.81;54.58
76519;BME280;67029;51.054;13.798;2023-05-07T07:25:44;100919.18;;;14.85;54.55
76519;BME280;67029;51.054;13.798;2023-05-07T07:28:14;100919.80;;;14.87;54.30
76519;BME280;67029;51.054;13.798;2023-05-07T07:30:45;100920.27;;;14.86;54.25
76519;BME280;67029;51.054;13.798;2023-05-07T07:33:14;100918.06;;;14.86;54.08
76519;BME280;67029;51.054;13.798;2023-05-07T07:35:44;100919.39;;;14.90;53.83
76519;BME280;67029;51.054;13.798;2023-05-07T07:38:15;100924.92;;;14.87;53.79
76519;BME280;67029;51.054;13.798;2023-05-07T07:40:44;100926.54;;;14.90;53.79
76519;BME280;67029;51.054;13.798;2023-05-07T07:43:14;100925.27;;;14.94;53.72
76519;BME280;67029;51.054;13.798;2023-05-07T07:45:44;100927.10;;;14.97;53.74
76519;BME280;67029;51.054;13.798;2023-05-07T07:48:14;100935.11;;;14.95;53.54
76519;BME280;67029;51.054;13.798;2023-05-07T07:50:44;100934.49;;;14.92;53.47
76519;BME280;67029;51.054;13.798;2023-05-07T07:53:14;100939.34;;;14.93;53.51
76519;BME280;67029;51.054;13.798;2023-05-07T07:55:45;100936.98;;;14.95;53.48
76519;BME280;67029;51.054;13.798;2023-05-07T07:58:15;100936.33;;;14.91;53.66
76519;BME280;67029;51.054;13.798;2023-05-07T08:00:45;100945.40;;;14.92;53.62
76519;BME280;67029;51.054;13.798;2023-05-07T08:03:15;100943.39;;;14.94;53.62
76519;BME280;67029;51.054;13.798;2023-05-07T08:05:45;100946.00;;;14.92;53.63
76519;BME280;67029;51.054;13.798;2023-05-07T08:08:15;100950.94;;;14.95;53.74
76519;BME280;67029;51.054;13.798;2023-05-07T08:10:45;100944.74;;;14.91;53.62
76519;BME280;67029;51.054;13.798;2023-05-07T08:13:16;100944.83;;;14.87;53.59
76519;BME280;67029;51.054;13.798;2023-05-07T08:15:46;100949.03;;;14.85;53.72
76519;BME280;67029;51.054;13.798;2023-05-07T08:18:16;100948.37;;;14.88;53.72
76519;BME280;67029;51.054;13.798;2023-05-07T08:20:46;100953.27;;;14.95;53.71
76519;BME280;67029;51.054;13.798;2023-05-07T08:23:17;100949.27;;;15.02;53.53
76519;BME280;67029;51.054;13.798;2023-05-07T08:25:47;100952.16;;;15.03;53.42
76519;BME280;67029;51.054;13.798;2023-05-07T08:28:17;100956.20;;;15.05;53.29
76519;BME280;67029;51.054;13.798;2023-05-07T08:30:47;100956.55;;;15.09;53.38
76519;BME280;67029;51.054;13.798;2023-05-07T08:33:17;100959.56;;;15.18;53.19
76519;BME280;67029;51.054;13.798;2023-05-07T08:35:47;100954.22;;;15.24;53.08
76519;BME280;67029;51.054;13.798;2023-05-07T08:38:17;100955.14;;;15.29;53.10
76519;BME280;67029;51.054;13.798;2023-05-07T08:40:49;100956.94;;;15.35;52.93
76519;BME280;67029;51.054;13.798;2023-05-07T08:43:18;100958.73;;;15.39;52.83
76519;BME280;67029;51.054;13.798;2023-05-07T08:45:53;100956.56;;;15.44;52.81
76519;BME280;67029;51.054;13.798;2023-05-07T08:48:22;100952.58;;;15.51;52.40
76519;BME280;67029;51.054;13.798;2023-05-07T08:50:51;100955.45;;;15.51;52.10
76519;BME280;67029;51.054;13.798;2023-05-07T08:53:23;100960.45;;;15.56;52.14
76519;BME280;67029;51.054;13.798;2023-05-07T08:55:52;100961.63;;;15.60;52.08
76519;BME280;67029;51.054;13.798;2023-05-07T08:58:22;100966.55;;;15.60;52.00
76519;BME280;67029;51.054;13.798;2023-05-07T09:00:53;100970.73;;;15.61;52.22
76519;BME280;67029;51.054;13.798;2023-05-07T09:03:25;100975.89;;;15.67;52.26
76519;BME280;67029;51.054;13.798;2023-05-07T09:05:53;100978.64;;;15.65;52.21
76519;BME280;67029;51.054;13.798;2023-05-07T09:08:27;100976.50;;;15.65;52.22
76519;BME280;67029;51.054;13.798;2023-05-07T09:10:56;100977.28;;;15.68;52.34
76519;BME280;67029;51.054;13.798;2023-05-07T09:13:24;100980.00;;;15.69;52.44
76519;BME280;67029;51.054;13.798;2023-05-07T09:15:55;100978.86;;;15.75;52.42
76519;BME280;67029;51.054;13.798;2023-05-07T09:18:25;100981.97;;;15.84;52.28
76519;BME280;67029;51.054;13.798;2023-05-07T09:20:55;100986.87;;;15.89;51.77
76519;BME280;67029;51.054;13.798;2023-05-07T09:23:25;100990.38;;;15.82;51.97
76519;BME280;67029;51.054;13.798;2023-05-07T09:25:59;100987.08;;;15.83;51.50
76519;BME280;67029;51.054;13.798;2023-05-07T09:28:26;100990.52;;;15.82;51.52
76519;BME280;67029;51.054;13.798;2023-05-07T09:30:56;100990.06;;;15.83;51.56
76519;BME280;67029;51.054;13.798;2023-05-07T09:33:27;100995.48;;;15.88;51.48
76519;BME280;67029;51.054;13.798;2023-05-07T09:35:56;100990.77;;;15.85;51.44
76519;BME280;67029;51.054;13.798;2023-05-07T09:38:27;100989.48;;;15.86;51.36
76519;BME280;67029;51.054;13.798;2023-05-07T09:41:03;100994.34;;;15.83;51.15
76519;BME280;67029;51.054;13.798;2023-05-07T09:43:31;100990.67;;;15.83;51.35
76519;BME280;67029;51.054;13.798;2023-05-07T09:46:02;100989.23;;;15.82;51.22
76519;BME280;67029;51.054;13.798;2023-05-07T09:48:32;100991.38;;;15.89;51.11
76519;BME280;67029;51.054;13.798;2023-05-07T09:51:02;100991.56;;;15.98;50.90
76519;BME280;67029;51.054;13.798;2023-05-07T09:53:30;100991.38;;;16.05;50.76
76519;BME280;67029;51.054;13.798;2023-05-07T09:56:00;101004.98;;;16.14;50.55
76519;BME280;67029;51.054;13.798;2023-05-07T09:58:31;100988.67;;;16.15;49.57
76519;BME280;67029;51.054;13.798;2023-05-07T10:01:04;100986.02;;;16.12;50.05
76519;BME280;67029;51.054;13.798;2023-05-07T10:03:33;100996.14;;;16.09;50.45
76519;BME280;67029;51.054;13.798;2023-05-07T10:06:03;100992.94;;;16.15;50.48
76519;BME280;67029;51.054;13.798;2023-05-07T10:08:33;100993.94;;;16.18;50.34
76519;BME280;67029;51.054;13.798;2023-05-07T10:11:04;100993.56;;;16.24;50.38
76519;BME280;67029;51.054;13.798;2023-05-07T10:13:34;100996.03;;;16.27;50.11
76519;BME280;67029;51.054;13.798;2023-05-07T10:16:06;100993.80;;;16.28;49.91
76519;BME280;67029;51.054;13.798;2023-05-07T10:18:36;100993.89;;;16.34;50.02
76519;BME280;67029;51.054;13.798;2023-05-07T10:21:11;100998.33;;;16.45;49.72
76519;BME280;67029;51.054;13.798;2023-05-07T10:23:36;100995.61;;;16.49;49.51
76519;BME280;67029;51.054;13.798;2023-05-07T10:26:09;100996.09;;;16.59;49.39
76519;BME280;67029;51.054;13.798;2023-05-07T10:28:42;100996.01;;;16.68;48.98
76519;BME280;67029;51.054;13.798;2023-05-07T10:31:38;100990.85;;;16.76;48.70
76519;BME280;67029;51.054;13.798;2023-05-07T10:33:39;100992.89;;;16.77;48.89
76519;BME280;67029;51.054;13.798;2023-05-07T10:36:08;100986.77;;;16.83;48.67
76519;BME280;67029;51.054;13.798;2023-05-07T10:38:39;100984.00;;;16.89;48.74
76519;BME280;67029;51.054;13.798;2023-05-07T10:41:10;100985.53;;;16.96;48.47
76519;BME280;67029;51.054;13.798;2023-05-07T10:43:44;100986.88;;;17.01;48.51
76519;BME280;67029;51.054;13.798;2023-05-07T10:46:11;100989.16;;;17.08;48.34
76519;BME280;67029;51.054;13.798;2023-05-07T10:51:23;100976.95;;;17.22;48.61
76519;BME280;67029;51.054;13.798;2023-05-07T10:53:42;100971.67;;;17.30;48.57
76519;BME280;67029;51.054;13.798;2023-05-07T10:56:23;100965.38;;;17.43;48.68
76519;BME280;67029;51.054;13.798;2023-05-07T10:58:42;100965.17;;;17.60;48.14
76519;BME280;67029;51.054;13.798;2023-05-07T11:01:13;100961.22;;;17.74;47.63
76519;BME280;67029;51.054;13.798;2023-05-07T11:04:13;100967.58;;;17.86;46.97
76519;BME280;67029;51.054;13.798;2023-05-07T11:06:15;100969.33;;;17.91;46.39
76519;BME280;67029;51.054;13.798;2023-05-07T11:08:57;100969.22;;;17.96;46.29
76519;BME280;67029;51.054;13.798;2023-05-07T11:11:14;100975.48;;;18.01;46.54
76519;BME280;67029;51.054;13.798;2023-05-07T11:13:45;100976.00;;;18.03;45.19
76519;BME280;67029;51.054;13.798;2023-05-07T11:16:19;100969.33;;;17.93;45.41
76519;BME280;67029;51.054;13.798;2023-05-07T11:18:46;100973.22;;;17.84;45.54
76519;BME280;67029;51.054;13.798;2023-05-07T11:21:34;100974.91;;;17.81;45.75
76519;BME280;67029;51.054;13.798;2023-05-07T11:23:54;100970.69;;;17.82;45.69
76519;BME280;67029;51.054;13.798;2023-05-07T11:26:17;100970.84;;;17.73;45.91
76519;BME280;67029;51.054;13.798;2023-05-07T11:28:47;100969.57;;;17.75;45.77
76519;BME280;67029;51.054;13.798;2023-05-07T11:31:22;100966.64;;;17.75;45.63
76519;BME280;67029;51.054;13.798;2023-05-07T11:33:49;100961.58;;;17.73;46.05
76519;BME280;67029;51.054;13.798;2023-05-07T11:36:19;100967.62;;;17.77;46.07
76519;BME280;67029;51.054;13.798;2023-05-07T11:38:49;100970.86;;;17.82;45.92
76519;BME280;67029;51.054;13.798;2023-05-07T11:41:19;100972.15;;;17.79;45.79
76519;BME280;67029;51.054;13.798;2023-05-07T11:44:00;100971.25;;;17.78;46.15
76519;BME280;67029;51.054;13.798;2023-05-07T11:46:20;100967.30;;;17.84;45.95
76519;BME280;67029;51.054;13.798;2023-05-07T11:48:50;100965.35;;;17.84;46.27
76519;BME280;67029;51.054;13.798;2023-05-07T11:51:22;100970.52;;;17.86;46.05
76519;BME280;67029;51.054;13.798;2023-05-07T11:53:51;100975.42;;;17.87;46.01
76519;BME280;67029;51.054;13.798;2023-05-07T11:56:21;100973.53;;;17.83;45.86
76519;BME280;67029;51.054;13.798;2023-05-07T11:58:51;100975.91;;;17.82;45.90
76519;BME280;67029;51.054;13.798;2023-05-07T12:01:21;100975.81;;;17.80;46.02
76519;BME280;67029;51.054;13.798;2023-05-07T12:03:51;100970.00;;;17.82;46.04
76519;BME280;67029;51.054;13.798;2023-05-07T12:06:21;100969.71;;;17.87;46.10
76519;BME280;67029;51.054;13.798;2023-05-07T12:08:51;100974.44;;;17.86;46.09
76519;BME280;67029;51.054;13.798;2023-05-07T12:11:25;100979.25;;;17.91;46.24
76519;BME280;67029;51.054;13.798;2023-05-07T12:13:51;100978.03;;;17.94;46.16
76519;BME280;67029;51.054;13.798;2023-05-07T12:16:23;100977.29;;;17.90;45.96
76519;BME280;67029;51.054;13.798;2023-05-07T12:18:53;100971.13;;;17.90;46.22
76519;BME280;67029;51.054;13.798;2023-05-07T12:21:23;100977.38;;;17.98;46.00
76519;BME280;67029;51.054;13.798;2023-05-07T12:23:53;100978.91;;;18.03;46.23
76519;BME280;67029;51.054;13.798;2023-05-07T12:26:24;100981.22;;;18.13;46.11
76519;BME280;67029;51.054;13.798;2023-05-07T12:28:54;100983.33;;;18.19;45.97
76519;BME280;67029;51.054;13.798;2023-05-07T12:31:27;100983.88;;;18.25;45.74
76519;BME280;67029;51.054;13.798;2023-05-07T12:33:54;100984.61;;;18.26;45.19
76519;BME280;67029;51.054;13.798;2023-05-07T12:36:24;100985.61;;;18.27;45.13
76519;BME280;67029;51.054;13.798;2023-05-07T12:38:54;100995.09;;;18.30;45.37
76519;BME280;67029;51.054;13.798;2023-05-07T12:41:25;100987.91;;;18.32;45.45
76519;BME280;67029;51.054;13.798;2023-05-07T12:43:56;100985.10;;;18.38;45.42
76519;BME280;67029;51.054;13.798;2023-05-07T12:46:25;100983.64;;;18.46;45.57
76519;BME280;67029;51.054;13.798;2023-05-07T12:48:55;100980.14;;;18.53;45.01
76519;BME280;67029;51.054;13.798;2023-05-07T12:51:25;100978.59;;;18.60;45.16
76519;BME280;67029;51.054;13.798;2023-05-07T12:53:56;100981.55;;;18.68;45.21
76519;BME280;67029;51.054;13.798;2023-05-07T12:56:26;100977.21;;;18.85;45.53